Time;durP1;ratioP1;P1;durP2;ratioP2;P2;SDS_P1;SDS_P2;PMS_P1;PMS_P2;Temp;Humidity;BMP_temperature;BMP_pressure;BME280_temperature;BME280_humidity;BME280_pressure;Samples;Min_cycle;Max_cycle;Signal;HPM_P1;HPM_P2
2021/10/14 00:00:16;;;;;;;18.80;9.85;;;;;;;-139.48;100.00;61774.03;4919064;29;19922;-71
2021/10/14 00:03:00;;;;;;;14.93;10.48;;;;;;;-139.48;100.00;61774.03;4918984;29;20054;-71
2021/10/14 00:05:44;;;;;;;16.88;11.13;;;;;;;-139.48;100.00;61774.03;4919077;29;20129;-70
2021/10/14 00:08:28;;;;;;;24.05;12.25;;;;;;;-139.48;100.00;61774.03;4905834;29;20051;-71
2021/10/14 00:11:12;;;;;;;14.07;9.20;;;;;;;-139.48;100.00;61774.03;4905218;29;20116;-71
2021/10/14 00:13:56;;;;;;;20.95;11.25;;;;;;;-139.48;100.00;61774.03;4905705;29;20107;-70
2021/10/14 00:16:40;;;;;;;20.02;12.02;;;;;;;-139.48;100.00;61774.03;4918775;29;20067;-71
2021/10/14 00:19:25;;;;;;;16.65;11.52;;;;;;;-139.48;100.00;61774.03;4918791;29;20478;-71
2021/10/14 00:22:08;;;;;;;14.30;10.55;;;;;;;-139.48;100.00;61774.03;4919388;29;20051;-71
2021/10/14 00:24:52;;;;;;;19.40;11.13;;;;;;;-139.48;100.00;61774.03;4918421;29;20138;-71
2021/10/14 00:27:37;;;;;;;16.48;11.20;;;;;;;-139.48;100.00;61774.03;4904950;29;20140;-71
2021/10/14 00:30:21;;;;;;;16.98;10.75;;;;;;;-139.48;100.00;61774.03;4918218;29;20138;-71
2021/10/14 00:33:05;;;;;;;17.33;11.00;;;;;;;-139.48;100.00;61774.03;4918424;29;20055;-71
2021/10/14 00:35:49;;;;;;;22.63;10.70;;;;;;;-139.48;100.00;61774.03;4919105;29;20047;-70
2021/10/14 00:38:33;;;;;;;15.40;10.60;;;;;;;-139.48;100.00;61774.03;4905072;29;20078;-71
2021/10/14 00:41:17;;;;;;;15.50;10.60;;;;;;;-139.48;100.00;61774.03;4918382;29;20079;-71
2021/10/14 00:44:01;;;;;;;15.80;10.13;;;;;;;-139.48;100.00;61774.03;4918040;29;20090;-71
2021/10/14 00:46:54;;;;;;;14.38;9.93;;;;;;;-139.48;100.00;61774.03;4918293;29;20058;-71
2021/10/14 00:49:38;;;;;;;14.90;9.53;;;;;;;-139.48;100.00;61774.03;4917935;29;20042;-71
2021/10/14 00:52:24;;;;;;;15.85;9.88;;;;;;;-139.48;100.00;61774.03;4918193;29;20254;-71
2021/10/14 00:55:12;;;;;;;15.32;9.93;;;;;;;-139.48;100.00;61774.03;4917636;29;20087;-70
2021/10/14 00:57:56;;;;;;;16.38;10.45;;;;;;;-139.48;100.00;61774.03;4904733;29;20532;-71
2021/10/14 01:00:41;;;;;;;14.45;9.45;;;;;;;-139.48;100.00;61774.03;4904657;29;20063;-71
2021/10/14 01:03:25;;;;;;;18.25;9.15;;;;;;;-139.48;100.00;61774.03;4917908;29;20139;-71
2021/10/14 01:06:09;;;;;;;13.93;9.23;;;;;;;-139.48;100.00;61774.03;4918882;29;20525;-71
2021/10/14 01:08:53;;;;;;;13.57;9.00;;;;;;;-139.48;100.00;61774.03;4917610;29;20135;-71
2021/10/14 01:11:37;;;;;;;14.32;8.90;;;;;;;-139.48;100.00;61774.03;4917475;29;20113;-71
2021/10/14 01:14:22;;;;;;;12.70;8.55;;;;;;;-139.48;100.00;61774.03;4917770;29;20051;-71
2021/10/14 01:17:05;;;;;;;12.43;8.35;;;;;;;-139.48;100.00;61774.03;4904310;29;20592;-71
2021/10/14 01:19:49;;;;;;;12.70;9.18;;;;;;;-139.48;100.00;61774.03;4917426;29;20054;-70
2021/10/14 01:22:33;;;;;;;13.55;8.80;;;;;;;-139.48;100.00;61774.03;4918369;29;20126;-71
2021/10/14 01:25:17;;;;;;;14.30;8.25;;;;;;;-139.48;100.00;61774.03;4917570;29;20067;-71
2021/10/14 01:28:01;;;;;;;14.50;8.82;;;;;;;-139.48;100.00;61774.03;4917293;29;20051;-71
2021/10/14 01:30:45;;;;;;;12.68;8.52;;;;;;;-139.48;100.00;61774.03;4903920;29;20105;-71
2021/10/14 01:33:30;;;;;;;12.73;8.27;;;;;;;-139.48;100.00;61774.03;4917271;29;20051;-71
2021/10/14 01:36:14;;;;;;;13.13;7.90;;;;;;;-139.48;100.00;61774.03;4917061;29;20127;-71
2021/10/14 01:38:58;;;;;;;21.45;8.75;;;;;;;-139.48;100.00;61774.03;4902943;29;20425;-71
2021/10/14 01:41:47;;;;;;;13.88;8.93;;;;;;;-139.48;100.00;61774.03;4917268;29;20082;-71
2021/10/14 01:44:30;;;;;;;11.80;8.35;;;;;;;-139.48;100.00;61774.03;4917885;29;20102;-70
2021/10/14 01:47:14;;;;;;;;;;;;;;;-139.48;100.00;61774.03;4917713;29;20115;-71
2021/10/14 01:49:58;;;;;;;13.48;8.25;;;;;;;-139.48;100.00;61774.03;4930507;29;19937;-71
2021/10/14 01:52:42;;;;;;;13.48;8.48;;;;;;;-139.48;100.00;61774.03;4916964;29;20062;-71
2021/10/14 01:55:26;;;;;;;13.30;8.18;;;;;;;-139.48;100.00;61774.03;4903649;29;20062;-71
2021/10/14 01:58:10;;;;;;;12.77;8.65;;;;;;;-139.48;100.00;61774.03;4918203;29;20184;-71
2021/10/14 02:00:54;;;;;;;12.50;8.35;;;;;;;-139.48;100.00;61774.03;4916926;29;20055;-71
2021/10/14 02:03:38;;;;;;;12.98;9.02;;;;;;;-139.48;100.00;61774.03;4903705;29;20139;-71
2021/10/14 02:06:21;;;;;;;15.88;9.15;;;;;;;-139.48;100.00;61774.03;4917559;29;20083;-71
2021/10/14 02:09:05;;;;;;;15.27;9.77;;;;;;;-139.48;100.00;61774.03;4916795;29;20075;-70
2021/10/14 02:11:49;;;;;;;15.48;9.38;;;;;;;-139.48;100.00;61774.03;4916346;29;20050;-71
2021/10/14 02:14:33;;;;;;;18.23;9.65;;;;;;;-139.48;100.00;61774.03;4916463;29;20091;-70
2021/10/14 02:17:17;;;;;;;15.65;10.20;;;;;;;-139.48;100.00;61774.03;4903278;29;20422;-70
2021/10/14 02:20:01;;;;;;;15.20;9.85;;;;;;;-139.48;100.00;61774.03;4917517;29;20442;-71
2021/10/14 02:22:45;;;;;;;25.92;10.73;;;;;;;-139.48;100.00;61774.03;4916510;29;20107;-71
2021/10/14 02:25:29;;;;;;;61.88;13.82;;;;;;;-139.48;100.00;61774.03;4916823;29;20512;-71
2021/10/14 02:28:13;;;;;;;38.05;12.90;;;;;;;-139.48;100.00;61774.03;4917505;29;20569;-71
2021/10/14 02:30:57;;;;;;;71.65;14.93;;;;;;;-139.48;100.00;61774.03;4916292;29;20515;-71
2021/10/14 02:33:40;;;;;;;41.50;15.27;;;;;;;-139.48;100.00;61774.03;4917283;29;20121;-71
2021/10/14 02:36:24;;;;;;;45.92;16.70;;;;;;;-139.48;100.00;61774.03;4902942;29;20066;-71
2021/10/14 02:39:08;;;;;;;34.13;14.18;;;;;;;-139.48;100.00;61774.03;4917330;29;20095;-71
2021/10/14 02:41:52;;;;;;;25.92;14.70;;;;;;;-139.48;100.00;61774.03;4916371;29;20051;-71
2021/10/14 02:44:36;;;;;;;25.40;14.13;;;;;;;-139.48;100.00;61774.03;4916148;29;20102;-71
2021/10/14 02:47:20;;;;;;;21.45;13.15;;;;;;;-139.48;100.00;61774.03;4917254;29;20047;-71
2021/10/14 02:50:04;;;;;;;22.27;13.82;;;;;;;-139.48;100.00;61774.03;4916016;29;20158;-71
2021/10/14 02:52:48;;;;;;;27.15;14.18;;;;;;;-139.48;100.00;61774.03;4916278;29;20052;-70
2021/10/14 02:55:32;;;;;;;21.63;13.68;;;;;;;-139.48;100.00;61774.03;4917641;29;20187;-71
2021/10/14 02:58:16;;;;;;;22.08;14.27;;;;;;;-139.48;100.00;61774.03;4916052;29;20051;-70
2021/10/14 03:01:00;;;;;;;21.48;13.15;;;;;;;-139.48;100.00;61774.03;4902601;29;20051;-71
2021/10/14 03:03:44;;;;;;;22.08;13.25;;;;;;;-139.48;100.00;61774.03;4916834;29;20091;-71
2021/10/14 03:06:28;;;;;;;19.20;13.00;;;;;;;-139.48;100.00;61774.03;4916136;29;20103;-71
2021/10/14 03:09:12;;;;;;;25.10;14.40;;;;;;;-139.48;100.00;61774.03;4916192;29;20055;-70
2021/10/14 03:11:55;;;;;;;23.20;13.60;;;;;;;-139.48;100.00;61774.03;4915955;29;20125;-71
2021/10/14 03:14:39;;;;;;;30.70;14.52;;;;;;;-139.48;100.00;61774.03;4917212;29;20549;-71
2021/10/14 03:17:23;;;;;;;34.00;14.30;;;;;;;-139.48;100.00;61774.03;4916753;29;20099;-69
2021/10/14 03:20:08;;;;;;;26.15;14.80;;;;;;;-139.48;100.00;61774.03;4915800;29;20043;-71
2021/10/14 03:22:52;;;;;;;30.52;14.63;;;;;;;-139.48;100.00;61774.03;4915716;29;20080;-71
2021/10/14 03:25:36;;;;;;;27.50;16.13;;;;;;;-139.48;100.00;61774.03;4915960;29;20063;-71
2021/10/14 03:28:19;;;;;;;43.30;16.02;;;;;;;-139.48;100.00;61774.03;4929122;29;20521;-71
2021/10/14 03:31:03;;;;;;;34.95;15.80;;;;;;;-139.48;100.00;61774.03;4916840;29;20083;-71
2021/10/14 03:33:48;;;;;;;37.78;14.55;;;;;;;-139.48;100.00;61774.03;4915701;29;20100;-70
2021/10/14 03:36:31;;;;;;;33.30;17.00;;;;;;;-139.48;100.00;61774.03;4902788;29;20046;-71
2021/10/14 03:39:15;;;;;;;35.92;16.13;;;;;;;-139.48;100.00;61774.03;4915572;29;20122;-70
2021/10/14 03:41:59;;;;;;;32.08;15.80;;;;;;;-139.48;100.00;61774.03;4902693;29;20084;-69
2021/10/14 03:44:43;;;;;;;31.70;16.45;;;;;;;-139.48;100.00;61774.03;4915505;29;20095;-70
2021/10/14 03:47:27;;;;;;;;;;;;;;;-139.48;100.00;61774.03;4902969;29;20106;-70
2021/10/14 03:50:11;;;;;;;29.70;16.45;;;;;;;-139.48;100.00;61774.03;4915727;29;19966;-71
2021/10/14 03:52:55;;;;;;;31.00;17.17;;;;;;;-139.48;100.00;61774.03;4902264;29;20143;-71
2021/10/14 03:55:39;;;;;;;24.45;15.30;;;;;;;-139.48;100.00;61774.03;4916396;29;20070;-70
2021/10/14 03:58:24;;;;;;;23.85;15.20;;;;;;;-139.48;100.00;61774.03;4915694;29;20055;-71
2021/10/14 04:01:07;;;;;;;27.25;16.30;;;;;;;-139.48;100.00;61774.03;4917293;29;20178;-71
2021/10/14 04:03:51;;;;;;;;;;;;;;;-139.48;100.00;61774.03;4919111;29;20047;-70
2021/10/14 04:06:35;;;;;;;28.70;16.13;;;;;;;-139.48;100.00;61774.03;4932162;29;19926;-70
2021/10/14 04:09:19;;;;;;;26.00;15.63;;;;;;;-139.48;100.00;61774.03;4905859;29;20126;-71
2021/10/14 04:12:03;;;;;;;30.05;15.82;;;;;;;-139.48;100.00;61774.03;4918551;29;20541;-70
2021/10/14 04:14:48;;;;;;;34.03;16.85;;;;;;;-139.48;100.00;61774.03;4905190;29;20103;-71
2021/10/14 04:17:32;;;;;;;31.85;17.05;;;;;;;-139.48;100.00;61774.03;4918820;29;20549;-70
2021/10/14 04:20:16;;;;;;;28.60;16.98;;;;;;;-139.48;100.00;61774.03;4918749;29;20136;-70
2021/10/14 04:23:00;;;;;;;50.70;17.52;;;;;;;-139.48;100.00;61774.03;4918664;29;20520;-70
2021/10/14 04:25:44;;;;;;;38.30;17.05;;;;;;;-139.48;100.00;61774.03;4918699;29;20083;-71
2021/10/14 04:28:28;;;;;;;31.85;16.50;;;;;;;-139.48;100.00;61774.03;4918343;29;20524;-71
2021/10/14 04:31:13;;;;;;;30.23;16.60;;;;;;;-139.48;100.00;61774.03;4918316;29;20421;-70
2021/10/14 04:33:58;;;;;;;25.52;16.52;;;;;;;-139.48;100.00;61774.03;4918366;29;20083;-70
2021/10/14 04:36:43;;;;;;;24.75;15.32;;;;;;;-139.48;100.00;61774.03;4918466;29;20446;-71
2021/10/14 04:39:26;;;;;;;24.55;15.73;;;;;;;-139.48;100.00;61774.03;4918354;29;20051;-70
2021/10/14 04:42:10;;;;;;;24.50;15.45;;;;;;;-139.48;100.00;61774.03;4918090;29;20051;-70
2021/10/14 04:44:54;;;;;;;23.98;14.45;;;;;;;-139.48;100.00;61774.03;4918174;29;20055;-70
2021/10/14 04:47:39;;;;;;;26.90;16.08;;;;;;;-139.48;100.00;61774.03;4904724;29;20195;-70
2021/10/14 04:50:22;;;;;;;29.58;18.05;;;;;;;-139.48;100.00;61774.03;4917866;29;20513;-70
2021/10/14 04:53:06;;;;;;;27.88;17.05;;;;;;;-139.48;100.00;61774.03;4917924;29;20617;-70
2021/10/14 04:55:50;;;;;;;26.30;15.93;;;;;;;-139.48;100.00;61774.03;4904979;29;20079;-71
2021/10/14 04:58:34;;;;;;;;;;;;;;;-139.48;100.00;61774.03;4905159;29;20099;-70
2021/10/14 05:01:18;;;;;;;26.33;16.40;;;;;;;-139.48;100.00;61774.03;4918039;29;19954;-70
2021/10/14 05:04:02;;;;;;;29.63;17.00;;;;;;;-139.48;100.00;61774.03;4917864;29;20533;-70
2021/10/14 05:06:46;;;;;;;31.13;17.27;;;;;;;-139.48;100.00;61774.03;4917914;29;20059;-70
2021/10/14 05:09:30;;;;;;;39.17;18.95;;;;;;;-139.48;100.00;61774.03;4917894;29;20055;-71
2021/10/14 05:12:15;;;;;;;67.38;21.58;;;;;;;-139.48;100.00;61774.03;4918394;29;20051;-70
2021/10/14 05:14:59;;;;;;;48.60;18.08;;;;;;;-139.48;100.00;61774.03;4904569;29;20135;-70
2021/10/14 05:17:43;;;;;;;54.88;19.40;;;;;;;-139.48;100.00;61774.03;4918410;29;20139;-70
2021/10/14 05:20:27;;;;;;;69.78;20.08;;;;;;;-139.48;100.00;61774.03;4904630;29;20103;-70
2021/10/14 05:23:11;;;;;;;41.80;18.33;;;;;;;-139.48;100.00;61774.03;4918232;29;20051;-71
2021/10/14 05:25:56;;;;;;;37.08;18.88;;;;;;;-139.48;100.00;61774.03;4904287;29;20106;-71
2021/10/14 05:28:40;;;;;;;35.35;17.60;;;;;;;-139.48;100.00;61774.03;4917283;29;20083;-71
2021/10/14 05:31:24;;;;;;;34.50;18.52;;;;;;;-139.48;100.00;61774.03;4917141;29;20117;-70
2021/10/14 05:34:08;;;;;;;31.45;18.00;;;;;;;-139.48;100.00;61774.03;4917213;29;20051;-70
2021/10/14 05:36:52;;;;;;;32.92;18.40;;;;;;;-139.48;100.00;61774.03;4904247;29;20113;-70
2021/10/14 05:39:36;;;;;;;26.65;15.45;;;;;;;-139.48;100.00;61774.03;4917344;29;20058;-70
2021/10/14 05:42:20;;;;;;;29.23;17.38;;;;;;;-139.48;100.00;61774.03;4917911;29;20051;-70
2021/10/14 05:45:05;;;;;;;32.70;17.20;;;;;;;-139.48;100.00;61774.03;4903585;29;20059;-70
2021/10/14 05:47:48;;;;;;;29.45;16.60;;;;;;;-139.48;100.00;61774.03;4903637;29;20050;-71
2021/10/14 05:50:33;;;;;;;30.85;16.67;;;;;;;-139.48;100.00;61774.03;4918022;29;20051;-71
2021/10/14 05:53:17;;;;;;;27.92;16.75;;;;;;;-139.48;100.00;61774.03;4916767;29;20478;-70
2021/10/14 05:56:01;;;;;;;24.17;14.75;;;;;;;-139.48;100.00;61774.03;4916877;29;20099;-70
2021/10/14 05:58:45;;;;;;;24.10;14.35;;;;;;;-139.48;100.00;61774.03;4903936;29;20089;-70
2021/10/14 06:01:28;;;;;;;22.88;14.13;;;;;;;-139.48;100.00;61774.03;4916664;29;20130;-69
2021/10/14 06:04:12;;;;;;;19.65;13.65;;;;;;;-139.48;100.00;61774.03;4903282;29;20051;-70
2021/10/14 06:06:56;;;;;;;21.17;13.05;;;;;;;-139.48;100.00;61774.03;4916601;29;20059;-70
2021/10/14 06:09:40;;;;;;;21.52;13.23;;;;;;;-139.48;100.00;61774.03;4903662;29;20054;-70
2021/10/14 06:12:24;;;;;;;19.13;12.32;;;;;;;-139.48;100.00;61774.03;4916666;29;20064;-70
2021/10/14 06:15:08;;;;;;;;;;;;;;;-139.48;100.00;61774.03;4917030;29;20055;-70
2021/10/14 06:17:54;;;;;;;18.93;12.30;;;;;;;-139.48;100.00;61774.03;4929864;29;19922;-69
2021/10/14 06:20:38;;;;;;;19.13;12.55;;;;;;;-139.48;100.00;61774.03;4917549;29;20119;-70
2021/10/14 06:23:22;;;;;;;16.80;11.70;;;;;;;-139.48;100.00;61774.03;4916104;29;20054;-70
2021/10/14 06:26:08;;;;;;;21.15;13.18;;;;;;;-139.48;100.00;61774.03;4916426;29;20138;-70
2021/10/14 06:28:52;;;;;;;20.67;13.07;;;;;;;-139.48;100.00;61774.03;4916627;29;20079;-70
2021/10/14 06:31:36;;;;;;;19.77;12.38;;;;;;;-139.48;100.00;61774.03;4916282;29;20094;-70
2021/10/14 06:34:20;;;;;;;18.65;12.32;;;;;;;-139.48;100.00;61774.03;4903084;29;20103;-71
2021/10/14 06:37:04;;;;;;;22.45;12.10;;;;;;;-139.48;100.00;61774.03;4916476;29;20103;-70
2021/10/14 06:39:48;;;;;;;18.70;12.10;;;;;;;-139.48;100.00;61774.03;4902746;29;20055;-71
2021/10/14 06:42:32;;;;;;;20.65;12.05;;;;;;;-139.48;100.00;61774.03;4916339;29;20043;-71
2021/10/14 06:45:16;;;;;;;17.33;11.20;;;;;;;-139.48;100.00;61774.03;4917027;29;20098;-71
2021/10/14 06:48:00;;;;;;;20.08;12.13;;;;;;;-139.48;100.00;61774.03;4902797;29;20103;-70
2021/10/14 06:50:44;;;;;;;19.27;12.13;;;;;;;-139.48;100.00;61774.03;4902872;29;20082;-70
2021/10/14 06:53:27;;;;;;;16.60;10.75;;;;;;;-139.48;100.00;61774.03;4902626;29;20412;-71
2021/10/14 06:56:11;;;;;;;18.85;11.00;;;;;;;-139.48;100.00;61774.03;4902781;29;20050;-71
2021/10/14 06:58:55;;;;;;;15.15;10.63;;;;;;;-139.48;100.00;61774.03;4915983;29;20285;-70
2021/10/14 07:01:39;;;;;;;20.35;11.18;;;;;;;-139.48;100.00;61774.03;4916848;29;20047;-71
2021/10/14 07:04:23;;;;;;;14.70;10.57;;;;;;;-139.48;100.00;61774.03;4915940;29;20625;-71
2021/10/14 07:07:07;;;;;;;16.48;10.73;;;;;;;-139.48;100.00;61774.03;4916124;29;20059;-71
2021/10/14 07:09:51;;;;;;;16.05;11.05;;;;;;;-139.48;100.00;61774.03;4916111;29;20050;-70
2021/10/14 07:12:37;;;;;;;16.25;9.88;;;;;;;-139.48;100.00;61774.03;4916090;29;20092;-71
2021/10/14 07:15:21;;;;;;;13.73;10.13;;;;;;;-139.48;100.00;61774.03;4916088;29;20111;-70
2021/10/14 07:18:05;;;;;;;15.50;8.95;;;;;;;-139.48;100.00;61774.03;4916103;29;20095;-70
2021/10/14 07:20:49;;;;;;;12.73;9.10;;;;;;;-139.48;100.00;61774.03;4916759;29;20078;-71
2021/10/14 07:23:33;;;;;;;19.10;9.60;;;;;;;-139.48;100.00;61774.03;4915737;29;20425;-71
2021/10/14 07:26:17;;;;;;;13.38;8.35;;;;;;;-139.48;100.00;61774.03;4915957;29;20055;-71
2021/10/14 07:29:03;;;;;;;12.93;8.90;;;;;;;-139.48;100.00;61774.03;4916701;29;20051;-70
2021/10/14 07:31:47;;;;;;;14.82;8.55;;;;;;;-139.48;100.00;61774.03;4902592;29;20105;-70
2021/10/14 07:34:33;;;;;;;13.68;8.73;;;;;;;-139.48;100.00;61774.03;4915878;29;20051;-71
2021/10/14 07:37:19;;;;;;;13.65;9.15;;;;;;;-139.48;100.00;61774.03;4918605;29;20096;-71
2021/10/14 07:40:03;;;;;;;12.30;8.05;;;;;;;-139.48;100.00;61774.03;4920228;29;20059;-71
2021/10/14 07:42:47;;;;;;;12.35;8.70;;;;;;;-139.48;100.00;61774.03;4919042;29;20087;-71
2021/10/14 07:45:31;;;;;;;14.70;8.52;;;;;;;-139.48;100.00;61774.03;4919398;29;20102;-70
2021/10/14 07:48:16;;;;;;;14.40;8.45;;;;;;;-139.48;100.00;61774.03;4919091;29;20596;-71
2021/10/14 07:51:01;;;;;;;11.95;8.05;;;;;;;-139.48;100.00;61774.03;4919194;29;20135;-71
2021/10/14 07:53:45;;;;;;;14.65;9.07;;;;;;;-139.48;100.00;61774.03;4905489;29;20050;-71
2021/10/14 07:56:29;;;;;;;13.75;9.00;;;;;;;-139.48;100.00;61774.03;4919325;29;20099;-70
2021/10/14 07:59:12;;;;;;;12.88;8.80;;;;;;;-139.48;100.00;61774.03;4918847;29;20537;-71
2021/10/14 08:01:56;;;;;;;12.60;8.25;;;;;;;-139.48;100.00;61774.03;4918968;29;20481;-71
2021/10/14 08:04:40;;;;;;;14.77;9.50;;;;;;;-139.48;100.00;61774.03;4919004;29;20446;-71
2021/10/14 08:07:24;;;;;;;16.52;9.93;;;;;;;-139.48;100.00;61774.03;4919971;29;20425;-71
2021/10/14 08:10:08;;;;;;;13.85;8.63;;;;;;;-139.48;100.00;61774.03;4918910;29;20142;-71
2021/10/14 08:12:52;;;;;;;11.20;8.65;;;;;;;-139.48;100.00;61774.03;4918366;29;20552;-71
2021/10/14 08:15:36;;;;;;;13.02;9.38;;;;;;;-139.48;100.00;61774.03;4919823;29;20063;-70
2021/10/14 08:18:21;;;;;;;14.55;9.40;;;;;;;-139.48;100.00;61774.03;4905312;29;20122;-71
2021/10/14 08:21:05;;;;;;;11.35;7.00;;;;;;;-139.48;100.00;61774.03;4905095;29;20051;-71
2021/10/14 08:23:49;;;;;;;19.17;10.00;;;;;;;-139.48;100.00;61774.03;4905192;29;20529;-70
2021/10/14 08:26:33;;;;;;;12.43;9.15;;;;;;;-139.48;100.00;61774.03;4918605;29;20055;-71
2021/10/14 08:29:17;;;;;;;15.95;8.68;;;;;;;-139.48;100.00;61774.03;4905013;29;20106;-70
2021/10/14 08:32:02;;;;;;;15.98;9.70;;;;;;;-139.48;100.00;61774.03;4918408;29;20051;-70
2021/10/14 08:34:46;;;;;;;11.55;8.32;;;;;;;-139.48;100.00;61774.03;4904927;29;20050;-71
2021/10/14 08:37:30;;;;;;;12.85;8.75;;;;;;;-139.48;100.00;61774.03;4904947;29;20054;-71
2021/10/14 08:40:16;;;;;;;14.35;9.30;;;;;;;-139.48;100.00;61774.03;4918373;29;20135;-71
2021/10/14 08:43:05;;;;;;;17.45;7.88;;;;;;;-139.48;100.00;61774.03;4904701;29;20052;-71
2021/10/14 08:45:50;;;;;;;13.15;9.27;;;;;;;-139.48;100.00;61774.03;4918223;29;20111;-72
2021/10/14 08:48:35;;;;;;;12.50;8.88;;;;;;;-139.48;100.00;61774.03;4917834;29;20051;-69
2021/10/14 08:51:19;;;;;;;12.85;8.82;;;;;;;-139.48;100.00;61774.03;4904541;29;20517;-71
2021/10/14 08:54:03;;;;;;;16.52;9.45;;;;;;;-139.48;100.00;61774.03;4917984;29;20106;-71
2021/10/14 08:56:49;;;;;;;15.65;9.48;;;;;;;-139.48;100.00;61774.03;4906142;29;20051;-71
2021/10/14 08:59:33;;;;;;;15.40;10.38;;;;;;;-139.48;100.00;61774.03;4918080;29;20051;-71
2021/10/14 09:02:18;;;;;;;13.70;8.70;;;;;;;-139.48;100.00;61774.03;4917979;29;20099;-71
2021/10/14 09:05:08;;;;;;;13.40;9.60;;;;;;;-139.48;100.00;61774.03;4917797;29;20047;-71
2021/10/14 09:07:51;;;;;;;17.60;8.45;;;;;;;-139.48;100.00;61774.03;4917508;29;20561;-71
2021/10/14 09:10:36;;;;;;;15.90;9.32;;;;;;;-139.48;100.00;61774.03;4917317;29;20521;-71
2021/10/14 09:13:23;;;;;;;12.38;7.75;;;;;;;-139.48;100.00;61774.03;4917446;29;20131;-70
2021/10/14 09:16:20;;;;;;;15.70;7.15;;;;;;;-139.48;100.00;61774.03;4917683;29;20084;-69
2021/10/14 09:19:13;;;;;;;13.20;8.05;;;;;;;-139.48;100.00;61774.03;4918451;29;20055;-71
2021/10/14 09:21:59;;;;;;;10.88;7.82;;;;;;;-139.48;100.00;61774.03;4930685;29;20051;-72
2021/10/14 09:24:43;;;;;;;13.02;6.93;;;;;;;-139.48;100.00;61774.03;4904075;29;20409;-70
2021/10/14 09:27:27;;;;;;;12.68;7.57;;;;;;;-139.48;100.00;61774.03;4903925;29;20051;-71
2021/10/14 09:30:18;;;;;;;11.18;6.63;;;;;;;-139.48;100.00;61774.03;4903997;29;20561;-71
2021/10/14 09:33:02;;;;;;;10.18;7.57;;;;;;;-139.48;100.00;61774.03;4918415;29;20152;-70
2021/10/14 09:35:46;;;;;;;9.75;7.55;;;;;;;-139.48;100.00;61774.03;4903758;29;20449;-71
2021/10/14 09:38:33;;;;;;;8.65;6.85;;;;;;;-139.48;100.00;61774.03;4917489;29;20116;-71
2021/10/14 09:41:19;;;;;;;9.20;6.38;;;;;;;-139.48;100.00;61774.03;4930418;29;20051;-71
2021/10/14 09:44:08;;;;;;;9.55;6.28;;;;;;;-139.48;100.00;61774.03;4916861;29;20055;-71
2021/10/14 09:46:57;;;;;;;9.35;7.30;;;;;;;-139.48;100.00;61774.03;4917054;29;20099;-70
2021/10/14 09:49:41;;;;;;;8.27;6.35;;;;;;;-139.48;100.00;61774.03;4917257;29;20055;-71
2021/10/14 09:52:25;;;;;;;10.63;6.57;;;;;;;-139.48;100.00;61774.03;4917052;29;20442;-71
2021/10/14 09:55:09;;;;;;;13.45;7.18;;;;;;;-139.48;100.00;61774.03;4903316;29;20055;-70
2021/10/14 09:57:55;;;;;;;9.57;6.07;;;;;;;-139.48;100.00;61774.03;4903446;29;20051;-71
2021/10/14 10:00:40;;;;;;;8.10;6.40;;;;;;;-139.48;100.00;61774.03;4916691;29;20043;-71
2021/10/14 10:03:26;;;;;;;7.97;5.85;;;;;;;-139.48;100.00;61774.03;4916481;29;20047;-71
2021/10/14 10:06:11;;;;;;;8.18;5.97;;;;;;;-139.48;100.00;61774.03;4916713;29;20580;-71
2021/10/14 10:08:58;;;;;;;9.57;6.13;;;;;;;-139.48;100.00;61774.03;4916858;29;20051;-70
2021/10/14 10:11:46;;;;;;;8.70;6.05;;;;;;;-139.48;100.00;61774.03;4903347;29;20139;-71
2021/10/14 10:14:30;;;;;;;9.77;6.45;;;;;;;-139.48;100.00;61774.03;4916439;29;20461;-71
2021/10/14 10:17:16;;;;;;;12.38;6.28;;;;;;;-139.48;100.00;61774.03;4916393;29;20143;-69
2021/10/14 10:20:00;;;;;;;8.75;6.38;;;;;;;-139.48;100.00;61774.03;4917318;29;20135;-71
2021/10/14 10:22:50;;;;;;;9.85;5.95;;;;;;;-139.48;100.00;61774.03;4916572;29;20051;-71
2021/10/14 10:25:36;;;;;;;11.82;6.20;;;;;;;-139.48;100.00;61774.03;4917176;29;20095;-71
2021/10/14 10:28:36;;;;;;;10.30;5.78;;;;;;;-139.48;100.00;61774.03;4916161;29;20050;-71
2021/10/14 10:31:20;;;;;;;10.90;5.82;;;;;;;-139.48;100.00;61774.03;4902909;29;20051;-70
2021/10/14 10:34:04;;;;;;;10.00;5.60;;;;;;;-139.48;100.00;61774.03;4917324;29;20046;-71
2021/10/14 10:36:51;;;;;;;12.27;6.03;;;;;;;-139.48;100.00;61774.03;4903036;29;20129;-71
2021/10/14 10:40:10;;;;;;;10.50;6.38;;;;;;;-139.48;100.00;61774.03;4916114;29;20067;-71
2021/10/14 10:43:04;;;;;;;10.13;6.43;;;;;;;-139.48;100.00;61774.03;4917030;29;20046;-71
2021/10/14 10:45:52;;;;;;;11.15;6.38;;;;;;;-139.48;100.00;61774.03;4916020;29;20051;-70
2021/10/14 10:48:39;;;;;;;12.02;6.50;;;;;;;-139.48;100.00;61774.03;4916190;29;20055;-71
2021/10/14 10:51:28;;;;;;;12.52;6.07;;;;;;;-139.48;100.00;61774.03;4915892;29;20469;-69
2021/10/14 10:54:38;;;;;;;9.48;6.45;;;;;;;-139.48;100.00;61774.03;4915731;29;20087;-70
2021/10/14 10:57:49;;;;;;;10.18;6.32;;;;;;;-139.48;100.00;61774.03;4902587;29;20046;-71
2021/10/14 11:00:34;;;;;;;10.10;6.22;;;;;;;-139.48;100.00;61774.03;4915836;29;20051;-70
2021/10/14 11:03:21;;;;;;;8.75;6.40;;;;;;;-139.48;100.00;61774.03;4916760;29;20103;-69
2021/10/14 11:06:09;;;;;;;7.32;5.50;;;;;;;-139.48;100.00;61774.03;4915999;29;20110;-71
2021/10/14 11:08:59;;;;;;;7.35;5.78;;;;;;;-139.48;100.00;61774.03;4916034;29;20051;-70
2021/10/14 11:11:43;;;;;;;12.18;5.97;;;;;;;-139.48;100.00;61774.03;4919431;29;20577;-70
2021/10/14 11:14:37;;;;;;;8.55;5.70;;;;;;;-139.48;100.00;61774.03;4920753;29;20071;-71
2021/10/14 11:17:25;;;;;;;9.65;6.35;;;;;;;-139.48;100.00;61774.03;4906594;29;20051;-70
2021/10/14 11:20:09;;;;;;;11.43;6.13;;;;;;;-139.48;100.00;61774.03;4920176;29;20055;-71
2021/10/14 11:23:00;;;;;;;8.70;5.95;;;;;;;-139.48;100.00;61774.03;4906049;29;20091;-70
2021/10/14 11:25:59;;;;;;;8.43;5.38;;;;;;;-139.48;100.00;61774.03;4906291;29;20138;-71
2021/10/14 11:29:01;;;;;;;8.82;5.50;;;;;;;-139.48;100.00;61774.03;4919338;29;20099;-70
2021/10/14 11:31:51;;;;;;;11.00;5.07;;;;;;;-139.48;100.00;61774.03;4932499;29;20107;-71
2021/10/14 11:34:37;;;;;;;7.75;4.97;;;;;;;-139.48;100.00;61774.03;4919959;29;20067;-71
2021/10/14 11:37:21;;;;;;;12.00;5.60;;;;;;;-139.48;100.00;61774.03;4918998;29;20055;-71
2021/10/14 11:40:06;;;;;;;7.43;4.85;;;;;;;-139.48;100.00;61774.03;4918753;29;20055;-71
2021/10/14 11:42:49;;;;;;;7.80;4.38;;;;;;;-139.48;100.00;61774.03;4919068;29;20565;-70
2021/10/14 11:45:41;;;;;;;6.20;4.32;;;;;;;-139.48;100.00;61774.03;4905709;29;20071;-70
2021/10/14 11:48:26;;;;;;;9.40;4.82;;;;;;;-139.48;100.00;61774.03;4918698;29;20135;-71
2021/10/14 11:51:11;;;;;;;7.22;4.57;;;;;;;-139.48;100.00;61774.03;4932421;29;20540;-71
2021/10/14 11:53:58;;;;;;;8.25;4.90;;;;;;;-139.48;100.00;61774.03;4905058;29;20111;-69
2021/10/14 11:56:53;;;;;;;6.07;3.47;;;;;;;-139.48;100.00;61774.03;4905326;29;20160;-70
2021/10/14 11:59:38;;;;;;;6.80;3.70;;;;;;;-139.48;100.00;61774.03;4905045;29;20059;-70
2021/10/14 12:02:23;;;;;;;10.05;3.90;;;;;;;-139.48;100.00;61774.03;4918497;29;20128;-71
2021/10/14 12:05:08;;;;;;;5.47;3.65;;;;;;;-139.48;100.00;61774.03;4918104;29;20074;-71
2021/10/14 12:07:56;;;;;;;6.97;3.58;;;;;;;-139.48;100.00;61774.03;4904830;29;20566;-71
2021/10/14 12:10:41;;;;;;;7.32;4.45;;;;;;;-139.48;100.00;61774.03;4918243;29;20516;-70
2021/10/14 12:13:27;;;;;;;8.32;3.85;;;;;;;-139.48;100.00;61774.03;4918237;29;20051;-70
2021/10/14 12:16:13;;;;;;;8.52;4.63;;;;;;;-139.48;100.00;61774.03;4918155;29;20568;-70
2021/10/14 12:19:14;;;;;;;5.20;3.50;;;;;;;-139.48;100.00;61774.03;4917897;29;20118;-71